Canuelas, Argentina
Current Conditions -  °F | °C
As of 12:00 PM on Tuesday 21 Oct 2014 (Local Time) from SAEZ Reporting Station
Clear Clear  
Wind Chill: 26°   Ceiling: Unl
Heat Index: 26°   Visibility: 6mi
Dew Point: 11°   Wind: 13mph
Humidity: 39%   Direction: 330°NNW
Pressure: 30.09"   Gusts: NA
Location:  35.05°S, 58.73°W
Report Text: SAEZ 211500Z 33011KT 290V020 CAVOK 26/11 Q1019
Loading
Personal Weather Stations






























Interactive Weather Map
Tropical Storm Tracking
New forecast layout! Learn more

10-Day Weather Forecast

Advertisements
Track Severe Weather on mobile